Time;durP1;ratioP1;P1;durP2;ratioP2;P2;SDS_P1;SDS_P2;PMS_P1;PMS_P2;Temp;Humidity;BMP_temperature;BMP_pressure;BME280_temperature;BME280_humidity;BME280_pressure;Samples;Min_cycle;Max_cycle;Signal;HPM_P1;HPM_P2
2021/03/26 00:01:51;;;;;;;25.13;18.63;;;7.40;82.10;;;;;;5076794;28;20028;-72
2021/03/26 00:04:18;;;;;;;27.60;19.27;;;7.50;81.60;;;;;;5058909;28;20328;-72
2021/03/26 00:06:47;;;;;;;28.35;16.67;;;7.40;81.50;;;;;;5059064;28;20325;-72
2021/03/26 00:09:15;;;;;;;22.20;15.23;;;7.40;80.80;;;;;;5076874;28;20017;-72
2021/03/26 00:11:42;;;;;;;20.05;14.10;;;7.40;80.10;;;;;;5059033;28;20370;-72
2021/03/26 00:14:08;;;;;;;19.77;14.40;;;7.30;79.80;;;;;;5058866;28;20111;-72
2021/03/26 00:16:33;;;;;;;21.55;15.20;;;7.30;79.70;;;;;;5076730;28;20366;-72
2021/03/26 00:18:59;;;;;;;19.73;14.90;;;7.30;79.70;;;;;;5076987;28;20031;-72
2021/03/26 00:21:25;;;;;;;22.40;14.52;;;7.40;79.30;;;;;;5076502;28;20419;-72
2021/03/26 00:23:53;;;;;;;16.58;12.90;;;7.40;78.80;;;;;;5058834;28;20059;-72
2021/03/26 00:26:19;;;;;;;20.02;12.80;;;7.40;77.90;;;;;;5076461;28;20375;-72
2021/03/26 00:28:45;;;;;;;15.98;12.57;;;7.40;77.50;;;;;;5076544;28;20085;-72
2021/03/26 00:31:11;;;;;;;15.57;11.68;;;7.30;77.00;;;;;;5076563;28;20013;-72
2021/03/26 00:33:37;;;;;;;19.52;11.82;;;7.30;77.00;;;;;;5076434;28;20101;-72
2021/03/26 00:36:03;;;;;;;17.80;11.82;;;7.30;76.70;;;;;;5076525;28;20025;-72
2021/03/26 00:38:29;;;;;;;18.00;12.00;;;7.30;76.70;;;;;;5076471;28;20307;-72
2021/03/26 00:40:55;;;;;;;18.27;12.30;;;7.20;77.10;;;;;;5076491;28;20020;-72
2021/03/26 00:43:22;;;;;;;16.85;11.75;;;7.20;77.40;;;;;;5076310;28;20369;-72
2021/03/26 00:45:48;;;;;;;16.70;12.73;;;7.10;77.60;;;;;;5076551;28;20443;-72
2021/03/26 00:48:16;;;;;;;16.80;12.32;;;7.10;77.60;;;;;;5076671;28;20029;-72
2021/03/26 00:50:45;;;;;;;17.98;12.13;;;7.00;77.80;;;;;;5058652;28;20060;-72
2021/03/26 00:53:16;;;;;;;18.88;12.88;;;7.00;78.30;;;;;;5076584;28;20039;-72
2021/03/26 00:55:42;;;;;;;19.63;13.02;;;7.00;78.80;;;;;;5076464;28;20085;-72
2021/03/26 00:58:08;;;;;;;16.73;12.73;;;6.90;79.00;;;;;;5076317;28;20378;-72
2021/03/26 01:00:38;;;;;;;22.48;13.85;;;6.90;79.20;;;;;;5076274;28;20054;-72
2021/03/26 01:03:05;;;;;;;16.40;12.23;;;6.80;79.50;;;;;;5076354;28;20039;-72
2021/03/26 01:05:37;;;;;;;16.77;11.88;;;6.80;79.30;;;;;;5076510;28;20027;-72
2021/03/26 01:08:03;;;;;;;19.42;14.13;;;6.80;79.20;;;;;;5076342;28;20025;-72
2021/03/26 01:10:37;;;;;;;19.23;14.13;;;6.80;79.40;;;;;;5076133;28;20059;-72
2021/03/26 01:13:05;;;;;;;22.38;13.85;;;6.80;79.60;;;;;;5076144;28;20024;-72
2021/03/26 01:15:31;;;;;;;19.48;13.35;;;6.80;79.70;;;;;;5076376;28;20400;-72
2021/03/26 01:17:58;;;;;;;20.23;13.85;;;6.80;79.50;;;;;;5076126;28;20028;-72
2021/03/26 01:20:31;;;;;;;20.38;13.43;;;6.80;79.40;;;;;;5076136;28;20049;-72
2021/03/26 01:22:58;;;;;;;17.52;13.35;;;6.80;79.30;;;;;;5076252;28;20029;-72
2021/03/26 01:25:35;;;;;;;22.02;14.23;;;6.90;79.20;;;;;;5075699;28;20045;-72
2021/03/26 01:28:01;;;;;;;21.10;13.95;;;6.90;79.20;;;;;;5076215;28;20028;-72
2021/03/26 01:30:30;;;;;;;23.10;15.70;;;6.90;79.20;;;;;;5076043;28;20017;-72
2021/03/26 01:32:56;;;;;;;21.05;15.48;;;6.80;79.40;;;;;;5075961;28;20412;-72
2021/03/26 01:35:22;;;;;;;23.83;16.75;;;6.80;79.90;;;;;;5079532;28;20112;-72
2021/03/26 01:37:48;;;;;;;24.05;18.40;;;6.80;80.30;;;;;;5079771;28;20020;-72
2021/03/26 01:40:22;;;;;;;31.10;20.05;;;6.80;80.90;;;;;;5061791;28;20028;-72
2021/03/26 01:42:48;;;;;;;31.73;19.52;;;6.80;80.90;;;;;;5079673;28;20020;-72
2021/03/26 01:45:24;;;;;;;28.60;19.00;;;6.90;80.60;;;;;;5079322;28;20429;-72
2021/03/26 01:47:54;;;;;;;27.40;19.38;;;7.00;80.30;;;;;;5079648;28;20024;-72
2021/03/26 01:50:23;;;;;;;25.25;18.27;;;7.00;80.10;;;;;;5079347;28;20091;-72
2021/03/26 01:52:49;;;;;;;28.67;19.35;;;7.00;79.80;;;;;;5079455;28;20091;-72
2021/03/26 01:55:24;;;;;;;29.25;18.90;;;7.00;79.70;;;;;;5079155;28;20051;-72
2021/03/26 01:57:51;;;;;;;26.57;17.90;;;7.10;79.90;;;;;;5079473;28;20305;-72
2021/03/26 02:00:31;;;;;;;30.38;20.85;;;7.10;80.20;;;;;;5079146;28;20077;-72
2021/03/26 02:03:01;;;;;;;30.08;20.98;;;7.10;80.30;;;;;;5079547;28;20108;-72
2021/03/26 02:05:30;;;;;;;28.25;20.17;;;7.10;80.30;;;;;;5079111;28;20320;-72
2021/03/26 02:07:56;;;;;;;32.22;21.80;;;7.20;80.20;;;;;;5078986;28;20049;-72
2021/03/26 02:10:22;;;;;;;33.10;20.80;;;7.30;80.50;;;;;;5078897;28;20029;-72
2021/03/26 02:12:55;;;;;;;29.48;20.23;;;7.40;80.20;;;;;;5078890;28;20293;-72
2021/03/26 02:15:27;;;;;;;30.75;23.15;;;7.40;80.20;;;;;;5079107;28;20024;-72
2021/03/26 02:17:53;;;;;;;30.42;22.80;;;7.50;80.40;;;;;;5079356;28;20025;-72
2021/03/26 02:20:34;;;;;;;35.25;24.80;;;7.60;80.10;;;;;;5078784;28;20024;-72
2021/03/26 02:23:31;;;;;;;32.78;24.10;;;7.70;80.00;;;;;;5060878;28;20028;-72
2021/03/26 02:25:59;;;;;;;;;;;7.80;79.60;;;;;;5075650;28;20463;-72
2021/03/26 02:28:27;;;;;;;43.33;25.27;;;7.80;79.40;;;;;;5078807;28;20227;-72
2021/03/26 02:30:56;;;;;;;34.13;24.25;;;7.90;79.10;;;;;;5060802;28;20399;-72
2021/03/26 02:33:25;;;;;;;33.05;23.80;;;7.90;79.20;;;;;;5078453;28;20025;-72
2021/03/26 02:36:13;;;;;;;30.05;21.60;;;7.90;79.00;;;;;;5078415;28;20483;-72
2021/03/26 02:38:59;;;;;;;30.77;22.40;;;7.90;78.90;;;;;;5078608;28;20031;-72
2021/03/26 02:41:32;;;;;;;34.85;25.35;;;7.90;78.70;;;;;;5078648;28;20029;-72
2021/03/26 02:44:16;;;;;;;33.28;24.75;;;8.00;78.30;;;;;;5078073;28;20031;-72
2021/03/26 02:46:48;;;;;;;36.78;23.38;;;7.90;78.20;;;;;;5060497;28;20107;-72
2021/03/26 02:49:43;;;;;;;33.95;23.10;;;7.90;77.80;;;;;;5078276;28;20493;-72
2021/03/26 02:52:30;;;;;;;30.35;22.52;;;7.80;77.90;;;;;;5078320;28;20304;-72
2021/03/26 02:55:00;;;;;;;32.30;22.33;;;7.80;77.90;;;;;;5078030;28;20040;-72
2021/03/26 02:57:50;;;;;;;31.33;22.33;;;7.80;77.90;;;;;;5078241;28;20033;-72
2021/03/26 03:00:22;;;;;;;38.17;24.33;;;7.80;77.90;;;;;;5069266;28;20062;-72
2021/03/26 03:02:50;;;;;;;33.70;22.65;;;7.80;78.10;;;;;;5078183;28;20422;-72
2021/03/26 03:05:38;;;;;;;33.97;22.75;;;7.80;78.00;;;;;;5077779;28;20169;-72
2021/03/26 03:08:09;;;;;;;33.80;22.38;;;7.80;78.20;;;;;;5078068;28;20024;-72
2021/03/26 03:10:47;;;;;;;37.83;22.90;;;7.80;78.10;;;;;;5077960;28;20024;-72
2021/03/26 03:13:17;;;;;;;34.63;23.65;;;7.80;78.30;;;;;;5077541;28;20040;-72
2021/03/26 03:15:53;;;;;;;36.97;25.10;;;7.70;78.20;;;;;;5077967;28;20032;-72
2021/03/26 03:18:27;;;;;;;37.13;24.37;;;7.60;78.70;;;;;;5077616;28;20097;-72
2021/03/26 03:21:10;;;;;;;33.67;24.10;;;7.60;78.90;;;;;;5077861;28;20338;-72
2021/03/26 03:23:39;;;;;;;42.92;24.63;;;7.60;79.00;;;;;;5077740;28;20028;-72
2021/03/26 03:26:46;;;;;;;33.75;22.15;;;7.60;79.00;;;;;;5077258;28;20110;-72
2021/03/26 03:29:27;;;;;;;30.40;23.30;;;7.60;78.90;;;;;;5076814;28;20440;-72
2021/03/26 03:31:59;;;;;;;33.13;24.30;;;7.50;79.30;;;;;;5077649;28;20111;-72
2021/03/26 03:34:38;;;;;;;31.23;24.02;;;7.50;79.60;;;;;;5077216;28;20036;-72
2021/03/26 03:37:18;;;;;;;34.40;23.42;;;7.40;79.60;;;;;;5077316;28;20029;-72
2021/03/26 03:39:59;;;;;;;30.83;22.77;;;7.30;79.30;;;;;;5059472;28;20028;-72
2021/03/26 03:42:36;;;;;;;41.72;26.55;;;7.30;79.00;;;;;;5077684;28;20068;-72
2021/03/26 03:45:26;;;;;;;34.83;23.85;;;7.30;78.70;;;;;;5077193;28;20028;-72
2021/03/26 03:48:04;;;;;;;32.42;23.95;;;7.20;78.30;;;;;;5077087;28;20028;-72
2021/03/26 03:50:39;;;;;;;31.77;22.33;;;7.20;78.80;;;;;;5077034;28;20017;-72
2021/03/26 03:53:10;;;;;;;29.45;22.63;;;7.10;79.10;;;;;;5077100;28;20396;-72
2021/03/26 03:55:55;;;;;;;32.28;21.73;;;7.00;79.20;;;;;;5076848;28;20069;-72
2021/03/26 03:58:37;;;;;;;30.58;22.05;;;6.80;79.30;;;;;;5077177;28;20071;-72
2021/03/26 04:01:03;;;;;;;36.83;23.35;;;6.70;79.80;;;;;;5076920;28;20027;-72
2021/03/26 04:03:52;;;;;;;31.33;22.17;;;6.60;79.80;;;;;;5076937;28;20033;-73
2021/03/26 04:06:30;;;;;;;30.80;21.55;;;6.40;80.30;;;;;;5076788;28;20347;-74
2021/03/26 04:09:01;;;;;;;28.95;21.02;;;6.30;80.70;;;;;;5076991;28;20028;-72
2021/03/26 04:11:41;;;;;;;35.60;22.23;;;6.30;80.60;;;;;;5076814;28;20016;-72
2021/03/26 04:14:26;;;;;;;33.00;21.67;;;6.20;80.70;;;;;;5076742;28;20054;-73
2021/03/26 04:17:03;;;;;;;27.67;19.13;;;6.20;80.90;;;;;;5077309;28;20031;-74
2021/03/26 04:19:35;;;;;;;29.77;19.65;;;6.30;81.00;;;;;;5058935;28;20039;-74
2021/03/26 04:22:07;;;;;;;26.02;18.60;;;6.30;81.00;;;;;;5076614;28;20024;-74
2021/03/26 04:24:54;;;;;;;27.08;18.10;;;6.30;80.90;;;;;;5076681;28;20036;-74
2021/03/26 04:27:28;;;;;;;27.85;19.23;;;6.30;80.50;;;;;;5076436;28;20056;-74
2021/03/26 04:30:06;;;;;;;26.95;18.17;;;6.40;80.50;;;;;;5076611;28;20058;-74
2021/03/26 04:32:32;;;;;;;29.63;19.40;;;6.30;80.80;;;;;;5076570;28;20032;-72
2021/03/26 04:34:57;;;;;;;28.05;19.02;;;6.30;80.90;;;;;;5058665;28;20036;-72
2021/03/26 04:37:46;;;;;;;29.23;19.80;;;6.20;80.60;;;;;;5058761;28;20031;-72
2021/03/26 04:40:12;;;;;;;31.40;20.85;;;6.20;80.60;;;;;;5076970;28;20058;-72
2021/03/26 04:42:44;;;;;;;26.90;20.48;;;6.20;80.80;;;;;;5076704;28;20025;-72
2021/03/26 04:45:38;;;;;;;33.53;21.05;;;6.20;80.90;;;;;;5076412;28;20049;-72
2021/03/26 04:48:21;;;;;;;37.08;22.20;;;6.20;80.90;;;;;;5076922;28;20017;-72
2021/03/26 04:51:24;;;;;;;32.42;22.88;;;6.10;80.90;;;;;;5058658;28;20024;-72
2021/03/26 04:54:02;;;;;;;33.22;22.33;;;6.10;81.00;;;;;;5068350;28;20086;-72
2021/03/26 04:56:33;;;;;;;30.42;21.90;;;6.00;81.10;;;;;;5076399;28;20078;-72
2021/03/26 04:59:02;;;;;;;32.30;22.30;;;6.10;81.10;;;;;;5058569;28;20297;-71
2021/03/26 05:01:30;;;;;;;28.88;20.75;;;6.10;81.00;;;;;;5076271;28;20082;-72
2021/03/26 05:04:06;;;;;;;24.42;19.40;;;6.10;80.90;;;;;;5076096;28;20021;-72
2021/03/26 05:06:36;;;;;;;28.65;19.27;;;6.20;80.60;;;;;;5076550;28;20032;-72
2021/03/26 05:09:14;;;;;;;32.42;19.98;;;6.20;80.20;;;;;;5078003;28;20024;-72
2021/03/26 05:11:43;;;;;;;39.63;23.05;;;6.30;79.80;;;;;;5080329;28;20035;-72
2021/03/26 05:14:17;;;;;;;33.28;21.50;;;6.30;79.80;;;;;;5080135;28;20031;-71
2021/03/26 05:16:43;;;;;;;33.63;21.67;;;6.30;79.50;;;;;;5080136;28;20059;-72
2021/03/26 05:19:38;;;;;;;29.70;20.80;;;6.30;79.40;;;;;;5080141;28;20063;-72
2021/03/26 05:22:37;;;;;;;33.58;21.85;;;6.20;79.80;;;;;;5080197;28;20115;-72
2021/03/26 05:25:21;;;;;;;30.20;21.00;;;6.20;80.30;;;;;;5079701;28;20048;-72
2021/03/26 05:27:48;;;;;;;28.65;20.33;;;6.30;80.40;;;;;;5079595;28;20028;-72
2021/03/26 05:30:35;;;;;;;30.92;21.40;;;6.40;80.00;;;;;;5079971;28;20028;-72
2021/03/26 05:33:07;;;;;;;33.95;21.50;;;6.50;79.80;;;;;;5079865;28;20066;-72
2021/03/26 05:36:02;;;;;;;34.08;23.10;;;6.70;79.70;;;;;;5079650;28;20059;-72
2021/03/26 05:38:36;;;;;;;31.27;20.92;;;6.80;79.90;;;;;;5052601;28;20403;-72
2021/03/26 05:41:20;;;;;;;30.42;21.48;;;6.80;80.00;;;;;;5079520;28;20116;-72
2021/03/26 05:44:13;;;;;;;29.20;20.65;;;6.90;79.80;;;;;;5079445;28;20027;-72
2021/03/26 05:47:16;;;;;;;30.88;21.55;;;7.00;79.70;;;;;;5079523;28;20016;-72
2021/03/26 05:50:19;;;;;;;27.25;20.30;;;7.10;79.00;;;;;;5079314;28;20099;-72
2021/03/26 05:53:17;;;;;;;40.72;20.58;;;7.20;78.90;;;;;;5079344;28;20425;-72
2021/03/26 05:55:55;;;;;;;32.20;21.50;;;7.40;78.80;;;;;;5061819;28;20028;-72
2021/03/26 05:58:21;;;;;;;45.55;20.75;;;7.50;78.80;;;;;;5079516;28;20107;-73
2021/03/26 06:01:14;;;;;;;34.78;22.08;;;7.60;78.20;;;;;;5061393;28;20070;-74
2021/03/26 06:04:01;;;;;;;33.00;21.90;;;7.70;78.20;;;;;;5061180;28;20028;-74
2021/03/26 06:06:51;;;;;;;30.33;21.10;;;7.80;77.80;;;;;;5079351;28;20079;-74
2021/03/26 06:09:28;;;;;;;36.97;23.75;;;7.90;77.70;;;;;;5078963;28;20028;-74
2021/03/26 06:12:02;;;;;;;28.88;22.08;;;8.00;76.70;;;;;;5079238;28;20119;-74
2021/03/26 06:15:08;;;;;;;33.20;21.98;;;8.10;77.00;;;;;;5078777;28;20036;-74
2021/03/26 06:17:58;;;;;;;31.55;21.48;;;8.20;74.40;;;;;;5078935;28;20423;-74
2021/03/26 06:21:01;;;;;;;36.88;22.17;;;8.40;73.40;;;;;;5078480;28;20025;-74
2021/03/26 06:24:00;;;;;;;30.92;22.00;;;8.50;73.30;;;;;;5078875;28;20036;-74
2021/03/26 06:26:57;;;;;;;31.85;22.90;;;8.80;72.50;;;;;;5078575;28;20048;-74
2021/03/26 06:29:43;;;;;;;29.23;20.45;;;9.00;71.70;;;;;;5078733;28;20024;-74
2021/03/26 06:32:46;;;;;;;30.85;21.15;;;9.10;71.60;;;;;;5078613;28;20056;-74
2021/03/26 06:35:12;;;;;;;31.23;20.13;;;9.20;71.70;;;;;;5078396;28;20040;-74
2021/03/26 06:37:47;;;;;;;31.17;19.77;;;9.20;69.90;;;;;;5078756;28;20025;-74
2021/03/26 06:40:36;;;;;;;32.57;21.17;;;9.20;70.30;;;;;;5078645;28;20026;-72
2021/03/26 06:43:41;;;;;;;28.35;20.60;;;9.30;69.70;;;;;;5078416;28;20093;-72
2021/03/26 06:46:31;;;;;;;27.13;20.33;;;9.30;68.60;;;;;;5078307;28;20294;-72
2021/03/26 06:49:28;;;;;;;31.27;21.13;;;9.30;67.80;;;;;;5078382;28;20027;-72
2021/03/26 06:52:15;;;;;;;32.13;20.77;;;9.50;67.70;;;;;;5078255;28;20021;-72
2021/03/26 06:55:20;;;;;;;28.42;19.38;;;9.50;68.50;;;;;;5078041;28;20039;-72
2021/03/26 06:58:12;;;;;;;34.78;19.30;;;9.70;68.70;;;;;;5023799;28;20381;-72
2021/03/26 07:00:53;;;;;;;29.27;19.85;;;10.00;68.30;;;;;;5077956;28;20380;-72
2021/03/26 07:03:36;;;;;;;27.30;19.48;;;10.20;67.70;;;;;;5078035;28;20025;-72
2021/03/26 07:06:35;;;;;;;30.30;19.65;;;10.30;66.30;;;;;;5078219;28;20036;-72
2021/03/26 07:09:15;;;;;;;31.77;21.52;;;10.40;67.00;;;;;;5077950;28;20027;-72
2021/03/26 07:12:02;;;;;;;28.42;20.08;;;10.50;65.30;;;;;;5077806;28;20048;-72
2021/03/26 07:14:47;;;;;;;34.17;20.98;;;10.60;65.40;;;;;;5077607;28;20032;-72
2021/03/26 07:17:38;;;;;;;31.15;19.55;;;10.60;65.50;;;;;;5059908;28;20043;-72
2021/03/26 07:20:16;;;;;;;30.25;19.80;;;10.60;66.70;;;;;;5077861;28;20132;-72
2021/03/26 07:23:19;;;;;;;34.33;21.20;;;10.80;67.10;;;;;;5077586;28;20091;-72
2021/03/26 07:25:57;;;;;;;32.92;20.55;;;11.00;66.40;;;;;;5059518;28;20052;-72
2021/03/26 07:28:40;;;;;;;31.35;20.13;;;11.10;66.50;;;;;;5077806;28;20060;-72
2021/03/26 07:31:36;;;;;;;28.30;18.95;;;11.40;66.00;;;;;;5077113;28;20039;-72
2021/03/26 07:34:20;;;;;;;28.58;20.25;;;11.80;64.80;;;;;;5077421;28;20048;-72
2021/03/26 07:37:10;;;;;;;37.50;20.83;;;12.20;65.60;;;;;;5077417;28;20457;-72
2021/03/26 07:39:47;;;;;;;30.63;18.85;;;12.60;64.10;;;;;;5077368;28;20016;-72
2021/03/26 07:43:00;;;;;;;30.58;19.98;;;12.70;61.60;;;;;;5077228;28;20108;-72
2021/03/26 07:45:44;;;;;;;28.67;19.38;;;12.60;63.30;;;;;;5068630;28;20127;-72
2021/03/26 07:48:27;;;;;;;27.52;18.38;;;12.50;62.20;;;;;;5077109;28;20036;-72
2021/03/26 07:51:11;;;;;;;25.05;18.63;;;12.30;64.60;;;;;;5077671;28;20036;-72
2021/03/26 07:54:14;;;;;;;27.02;17.75;;;12.20;63.10;;;;;;5077307;28;20027;-72
2021/03/26 07:57:05;;;;;;;27.25;17.65;;;12.10;63.60;;;;;;5077040;28;20397;-72
2021/03/26 08:00:02;;;;;;;28.70;18.92;;;12.10;64.10;;;;;;5076922;28;20025;-72
2021/03/26 08:02:56;;;;;;;24.15;16.98;;;12.30;63.70;;;;;;5024143;28;20131;-72
2021/03/26 08:05:28;;;;;;;27.13;18.80;;;12.50;64.70;;;;;;5076739;28;20020;-72
2021/03/26 08:08:12;;;;;;;27.27;18.05;;;12.80;62.80;;;;;;5076942;28;20036;-72
2021/03/26 08:10:44;;;;;;;27.00;19.15;;;13.30;60.80;;;;;;5076740;28;20108;-72
2021/03/26 08:13:12;;;;;;;29.77;18.50;;;14.00;59.20;;;;;;5076911;28;20158;-72
2021/03/26 08:15:56;;;;;;;26.55;16.73;;;14.70;57.90;;;;;;5076787;28;20047;-72
2021/03/26 08:18:37;;;;;;;24.67;18.02;;;15.50;56.00;;;;;;5077179;28;20066;-72
2021/03/26 08:21:24;;;;;;;28.33;18.73;;;16.20;53.90;;;;;;5077039;28;20333;-72
2021/03/26 08:24:01;;;;;;;27.90;18.17;;;16.90;52.70;;;;;;5076926;28;20385;-72
2021/03/26 08:26:59;;;;;;;24.10;17.75;;;17.40;51.80;;;;;;5076557;28;20072;-72
2021/03/26 08:29:36;;;;;;;24.10;17.08;;;17.90;50.30;;;;;;5076719;28;20024;-72
2021/03/26 08:32:02;;;;;;;27.52;16.83;;;18.10;49.40;;;;;;5076712;28;20023;-72
2021/03/26 08:34:40;;;;;;;26.85;17.95;;;18.60;49.10;;;;;;5058681;28;20131;-72
2021/03/26 08:37:15;;;;;;;25.85;17.98;;;18.50;49.30;;;;;;5076802;28;20108;-72
2021/03/26 08:39:52;;;;;;;24.77;18.63;;;18.30;49.80;;;;;;5076618;28;20039;-72
2021/03/26 08:42:45;;;;;;;24.50;17.67;;;18.50;49.50;;;;;;5077502;28;20404;-72
2021/03/26 08:45:11;;;;;;;22.67;17.98;;;18.70;49.20;;;;;;5060824;28;20324;-72
2021/03/26 08:48:11;;;;;;;27.27;18.23;;;18.90;49.40;;;;;;5080609;28;20037;-71
2021/03/26 08:50:58;;;;;;;23.48;17.10;;;19.10;48.00;;;;;;5080589;28;20100;-71
2021/03/26 08:53:46;;;;;;;22.05;17.02;;;19.40;47.40;;;;;;5080370;28;20029;-70
2021/03/26 08:56:37;;;;;;;28.33;17.58;;;19.70;47.60;;;;;;5080475;28;20052;-72
2021/03/26 08:59:11;;;;;;;27.17;18.65;;;19.70;47.10;;;;;;5080418;28;20052;-72
2021/03/26 09:02:02;;;;;;;22.90;16.95;;;19.30;46.80;;;;;;5080489;28;20036;-72
2021/03/26 09:04:46;;;;;;;24.45;15.77;;;19.10;47.90;;;;;;5080288;28;20389;-72
2021/03/26 09:07:31;;;;;;;23.83;17.88;;;19.30;48.30;;;;;;5080214;28;20028;-72
2021/03/26 09:10:14;;;;;;;22.17;16.42;;;19.40;46.80;;;;;;5080176;28;20040;-72
2021/03/26 09:12:58;;;;;;;22.20;16.42;;;19.40;47.90;;;;;;5080384;28;20032;-72
2021/03/26 09:15:42;;;;;;;23.10;17.15;;;19.50;47.50;;;;;;5079935;28;20079;-72
2021/03/26 09:18:19;;;;;;;22.92;18.45;;;20.00;48.20;;;;;;5080203;28;20118;-72
2021/03/26 09:20:57;;;;;;;26.75;17.50;;;20.40;46.80;;;;;;5079941;28;20102;-72
2021/03/26 09:23:31;;;;;;;22.67;17.85;;;20.40;46.70;;;;;;5080001;28;20020;-72
2021/03/26 09:26:18;;;;;;;24.83;18.33;;;20.50;45.80;;;;;;5079884;28;20443;-72
2021/03/26 09:28:51;;;;;;;25.58;18.40;;;20.50;47.40;;;;;;5079810;28;20025;-72
2021/03/26 09:31:32;;;;;;;20.70;18.50;;;20.30;46.30;;;;;;5079929;28;20020;-72
2021/03/26 09:34:22;;;;;;;27.17;19.00;;;19.90;46.80;;;;;;5061945;28;20047;-72
2021/03/26 09:37:06;;;;;;;26.52;19.15;;;20.00;46.10;;;;;;5061866;28;20370;-72
2021/03/26 09:39:34;;;;;;;24.48;19.65;;;20.10;45.90;;;;;;5079652;28;20028;-72
2021/03/26 09:42:11;;;;;;;25.77;19.83;;;20.10;46.30;;;;;;5079833;28;20021;-72
2021/03/26 09:44:46;;;;;;;28.70;19.75;;;20.20;45.40;;;;;;5079391;28;20048;-72
2021/03/26 09:47:31;;;;;;;26.17;19.52;;;20.10;46.10;;;;;;5079585;28;20020;-72
2021/03/26 09:50:16;;;;;;;30.50;20.45;;;20.00;46.40;;;;;;5079417;28;20092;-72
2021/03/26 09:52:43;;;;;;;25.75;19.90;;;20.10;44.70;;;;;;5079433;28;20025;-72
2021/03/26 09:55:32;;;;;;;31.40;20.90;;;20.00;45.80;;;;;;5078650;28;20317;-72
2021/03/26 09:58:03;;;;;;;23.40;19.85;;;20.10;46.30;;;;;;5079536;28;20025;-72
2021/03/26 10:00:31;;;;;;;25.40;20.23;;;19.80;45.90;;;;;;5061499;28;20028;-72
2021/03/26 10:03:03;;;;;;;27.83;19.98;;;19.80;46.30;;;;;;5079093;28;20037;-72
2021/03/26 10:05:54;;;;;;;27.42;20.50;;;19.80;47.70;;;;;;5079098;28;20031;-72
2021/03/26 10:12:14;;;;;;;25.83;19.60;;;19.80;46.60;;;;;;5065678;28;20328;-72
2021/03/26 10:15:02;;;;;;;25.98;19.10;;;20.00;47.70;;;;;;5092058;28;20350;-72
2021/03/26 10:17:49;;;;;;;28.13;18.55;;;20.70;45.90;;;;;;5078878;28;20412;-72
2021/03/26 10:20:38;;;;;;;25.92;21.25;;;20.90;46.10;;;;;;5078791;28;20036;-72
2021/03/26 10:23:30;;;;;;;26.42;19.98;;;20.90;45.70;;;;;;5078466;28;20085;-72
2021/03/26 10:25:59;;;;;;;32.90;20.48;;;21.00;46.10;;;;;;5078792;28;20052;-72
2021/03/26 10:28:24;;;;;;;24.23;21.15;;;20.90;43.80;;;;;;5078860;28;20099;-72
2021/03/26 10:31:18;;;;;;;26.65;21.38;;;20.50;44.80;;;;;;5078762;28;20100;-72
2021/03/26 10:33:57;;;;;;;29.52;21.15;;;20.70;45.80;;;;;;5078748;28;20032;-72
2021/03/26 10:36:38;;;;;;;30.58;21.80;;;20.80;44.90;;;;;;5078788;28;20107;-72
2021/03/26 10:39:09;;;;;;;26.73;20.48;;;20.50;45.90;;;;;;5078729;28;20102;-72
2021/03/26 10:41:47;;;;;;;26.00;21.48;;;20.40;46.50;;;;;;5078465;28;20100;-72
2021/03/26 10:45:03;;;;;;;29.77;21.50;;;20.20;46.60;;;;;;5078332;28;20103;-72
2021/03/26 10:47:40;;;;;;;27.50;22.48;;;20.30;45.40;;;;;;4997046;28;20037;-72
2021/03/26 10:50:42;;;;;;;29.02;22.15;;;20.40;44.60;;;;;;5076123;28;20425;-72
2021/03/26 10:53:20;;;;;;;30.73;23.17;;;20.10;46.30;;;;;;5078424;28;20021;-72
2021/03/26 10:56:27;;;;;;;27.00;22.27;;;20.40;46.30;;;;;;5078461;28;20104;-72
2021/03/26 10:59:02;;;;;;;29.10;23.08;;;20.50;44.70;;;;;;5078521;28;20025;-72
2021/03/26 11:01:34;;;;;;;;;;;20.60;45.60;;;;;;5078419;28;20025;-72
2021/03/26 11:04:14;;;;;;;27.95;22.88;;;20.70;45.40;;;;;;5077980;28;19960;-72
2021/03/26 11:06:52;;;;;;;31.23;23.00;;;20.60;45.20;;;;;;5076915;28;20078;-72
2021/03/26 11:09:26;;;;;;;27.42;22.73;;;20.60;43.60;;;;;;5078092;28;20059;-72
2021/03/26 11:12:01;;;;;;;28.95;23.05;;;20.30;44.80;;;;;;5077888;28;20316;-72
2021/03/26 11:14:34;;;;;;;32.08;24.13;;;20.50;45.10;;;;;;5077697;28;20451;-72
2021/03/26 11:17:11;;;;;;;33.50;24.65;;;20.60;45.00;;;;;;5078003;28;20108;-72
2021/03/26 11:19:56;;;;;;;28.35;24.10;;;20.50;44.00;;;;;;5077893;28;20090;-72
2021/03/26 11:22:26;;;;;;;36.38;24.63;;;20.60;46.60;;;;;;5077744;28;20103;-72
2021/03/26 11:25:04;;;;;;;29.40;23.60;;;20.30;46.80;;;;;;5077454;28;20420;-72
2021/03/26 11:27:43;;;;;;;31.10;24.73;;;20.20;46.20;;;;;;5060684;28;20397;-72
2021/03/26 11:30:36;;;;;;;36.47;25.10;;;20.40;47.80;;;;;;5059806;28;20021;-72
2021/03/26 11:33:10;;;;;;;31.65;24.65;;;20.60;44.90;;;;;;5077371;28;20319;-72
2021/03/26 11:35:39;;;;;;;34.83;25.70;;;20.70;44.80;;;;;;5077463;28;20095;-72
2021/03/26 11:38:18;;;;;;;31.48;25.25;;;20.60;44.90;;;;;;5059587;28;20074;-72
2021/03/26 11:41:06;;;;;;;29.17;24.40;;;20.00;46.90;;;;;;5077438;28;20020;-72
2021/03/26 11:43:42;;;;;;;33.13;24.95;;;19.90;47.40;;;;;;5077281;28;20053;-72
2021/03/26 11:46:16;;;;;;;33.40;25.25;;;20.00;46.90;;;;;;5077188;28;20025;-72
2021/03/26 11:48:51;;;;;;;34.58;25.75;;;19.90;46.80;;;;;;5077453;28;20043;-72
2021/03/26 11:51:29;;;;;;;31.83;24.17;;;20.10;46.20;;;;;;5077683;28;20154;-72
2021/03/26 11:54:29;;;;;;;31.38;24.85;;;20.10;46.50;;;;;;5077400;28;20071;-72
2021/03/26 11:57:03;;;;;;;31.67;24.40;;;20.10;46.10;;;;;;5077246;28;20086;-72
2021/03/26 11:59:51;;;;;;;30.52;24.13;;;20.00;49.10;;;;;;5077092;28;20024;-72
2021/03/26 12:02:19;;;;;;;38.83;24.92;;;20.00;50.30;;;;;;5059205;28;20332;-72
2021/03/26 12:05:12;;;;;;;34.97;25.63;;;20.00;45.90;;;;;;5076744;28;20032;-72
2021/03/26 12:07:47;;;;;;;28.25;24.08;;;19.90;47.30;;;;;;5076855;28;20078;-72
2021/03/26 12:10:36;;;;;;;33.35;24.35;;;19.90;48.20;;;;;;5076831;28;20107;-72
2021/03/26 12:13:20;;;;;;;33.72;25.10;;;19.60;47.70;;;;;;5058952;28;20025;-72
2021/03/26 12:16:17;;;;;;;42.22;26.13;;;19.40;48.70;;;;;;5077378;28;20385;-72
2021/03/26 12:18:59;;;;;;;31.58;24.80;;;19.20;48.30;;;;;;5076390;28;20023;-72
2021/03/26 12:21:57;;;;;;;32.70;24.77;;;19.00;46.50;;;;;;5076718;28;20051;-72
2021/03/26 12:24:47;;;;;;;34.22;25.63;;;18.70;49.90;;;;;;5076688;28;20040;-72
2021/03/26 12:27:26;;;;;;;39.95;26.17;;;18.70;49.60;;;;;;5076589;28;20045;-72
2021/03/26 12:30:09;;;;;;;34.60;26.15;;;18.40;48.30;;;;;;5076700;28;20075;-72
2021/03/26 12:32:56;;;;;;;35.72;25.45;;;17.70;49.80;;;;;;5076775;28;20074;-72
2021/03/26 12:35:28;;;;;;;37.53;27.38;;;17.60;52.00;;;;;;5076584;28;20447;-72
2021/03/26 12:37:57;;;;;;;38.72;28.30;;;17.50;51.00;;;;;;5058777;28;20044;-72
2021/03/26 12:40:35;;;;;;;35.65;26.20;;;17.30;53.00;;;;;;5076454;28;20029;-72
2021/03/26 12:43:10;;;;;;;42.38;28.17;;;17.30;51.40;;;;;;5076539;28;20029;-72
2021/03/26 12:45:53;;;;;;;39.38;26.02;;;17.40;54.40;;;;;;5076745;28;20032;-72
2021/03/26 12:48:22;;;;;;;37.10;25.60;;;17.50;50.50;;;;;;5076523;28;20119;-72
2021/03/26 12:50:53;;;;;;;39.97;28.30;;;17.40;50.80;;;;;;5058672;28;20032;-72
2021/03/26 12:53:24;;;;;;;35.85;27.38;;;17.30;51.30;;;;;;5076594;28;20028;-72
2021/03/26 12:56:08;;;;;;;41.65;27.30;;;17.20;52.00;;;;;;5076464;28;20029;-72
2021/03/26 12:59:14;;;;;;;39.33;27.63;;;17.10;52.30;;;;;;5076550;28;20079;-72
2021/03/26 13:02:08;;;;;;;40.83;28.25;;;17.30;53.00;;;;;;4995271;28;20145;-72
2021/03/26 13:04:49;;;;;;;40.05;28.17;;;17.10;51.20;;;;;;5076090;28;20024;-72
2021/03/26 13:07:23;;;;;;;38.00;28.33;;;17.00;53.40;;;;;;5058508;28;20424;-72
2021/03/26 13:09:58;;;;;;;40.67;29.42;;;17.20;50.10;;;;;;5076316;28;20025;-72
2021/03/26 13:12:34;;;;;;;40.05;30.65;;;17.10;51.50;;;;;;5076629;28;20029;-72
2021/03/26 13:15:27;;;;;;;39.05;29.45;;;17.10;52.30;;;;;;5076208;28;20024;-72
2021/03/26 13:18:08;;;;;;;48.80;28.05;;;16.80;49.70;;;;;;5076184;28;20029;-72
2021/03/26 13:21:11;;;;;;;38.10;29.10;;;16.80;52.70;;;;;;5058344;28;20028;-72
2021/03/26 13:23:39;;;;;;;42.03;29.08;;;16.80;50.20;;;;;;5076355;28;20304;-72
2021/03/26 13:26:10;;;;;;;37.75;29.50;;;16.70;52.30;;;;;;5075820;28;20056;-72
2021/03/26 13:29:31;;;;;;;42.33;29.52;;;16.70;49.90;;;;;;5076283;28;20017;-72
2021/03/26 13:31:58;;;;;;;45.28;30.02;;;16.50;53.60;;;;;;5062321;28;20048;-72
2021/03/26 13:34:28;;;;;;;35.95;28.05;;;16.50;52.30;;;;;;5079665;28;20058;-72
2021/03/26 13:37:14;;;;;;;44.00;32.15;;;16.50;52.50;;;;;;5079624;28;20332;-72
2021/03/26 13:39:48;;;;;;;39.85;29.05;;;16.50;50.60;;;;;;5061878;28;20048;-72